Terminal Aerodrome Forecast
Issued by NWS Melbourne, FL

Home | Current Version | Previous Version | Text Only | Print | Product List | Glossary On
Versions: 1 2 3 4 5 6 7 8 9 10 11 12
000
FTUS42 KMLB 282300 RRA
TAFMLB
TAF
KMLB 282342Z 2900/2924 23006KT P6SM SCT060 BKN070
     FM290400 24006KT P6SM SCT250
     FM290800 24007KT P6SM VCSH SCT025 BKN250
      TEMPO 2910/2913 SHRA BKN025
     FM291300 24011KT P6SM SCT040 SCT250
     FM291800 26008KT P6SM VCTS SCT040CB BKN250=

USA.gov is the U.S. government's official web portal to all federal, state and local government web resources and services.